الصفحة الرئيسية
METAR-TAF:

METAR-TAF

مطار :

Tarawa, كيريباس

دائرة عرض: 01-21N, خط طول: 172-55E, ارتفاع: 2 متر

مراقبة الطقس الحالي

تاريخ ووقت الإصدار 36 دقيقة قبل الساعة 16:00UTC
ريح 5 عقدة من الشمال/الشمال الشرقي
درجة الحرارة 27°درجة مئوية
الرطوبة 89%
ضغط 1006 hPa
الرؤية 10 كم أو أكثر
غيوم قليلة على ارتفاع 1900 قدم
غيوم متفرقة على ارتفاع 4000 قدم

METAR: NGTA 231600Z 03005KT 9999 FEW019 SCT040 27/25 Q1006

زمن: 06:36 (16:36 UTC)

توقعات

تاريخ ووقت الإصدار 5ساعات و 27 دقيقة قبل الساعة 11:09UTC
التوقعات صالحة من23 الساعة 12 UTC إلى 24 الساعة 12 UTC
ريح 8 عقدة من الشمال/الشمال الشرقي
الرؤية 10 كم أو أكثر
غيوم قليلة على ارتفاع 1800 قدم
غيوم متفرقة على ارتفاع 4000 قدم
غيوم مفككة على ارتفاع 10000 قدم
زخات من الأمطار الخفيفة
مؤقت
من 23 الساعة 12 UTC إلى 24 الساعة 06 UTC
الرؤية: 2000 متر
غيوم مفككة على ارتفاع 1500 قدم
غيوم قليلة على ارتفاع 1700 قدم, مزنة ركامية.
عاصفة رعدية, مطر غزير

TAF: NGTA 231109Z 2312/2412 03008KT 9999 -SHRA FEW018 SCT040 BKN100 TEMPO 2312/2406 2000 +TSRA BKN015 FEW017CB

أرصاد الطقس والتوقعات من أكثر من 4000 مطار (تقارير الطقس للمطار METAR والتنبؤ بالطقس بالمطارTAF).

المحطات المتاحة هي النقط الصفراء والحمراء على الخريطة.

حرك المؤشر فوق النقطة لمعرفة اسم المحطة.

ثم انقر لمعرفة أرصاد وتوقعات الطقس.

لتغيير الخارطة: اضغط على الأزرار الخضراء مع رمز الصليب الأسود للتكبير. على الزر الأخضر مع شرطة للتصغير، أو على الأسهم الخضراء للخرائط المجاورة.


METAR-TAF: